Time;durP1;ratioP1;P1;durP2;ratioP2;P2;SDS_P1;SDS_P2;PMS_P1;PMS_P2;Temp;Humidity;BMP_temperature;BMP_pressure;BME280_temperature;BME280_humidity;BME280_pressure;Samples;Min_cycle;Max_cycle;Signal;HPM_P1;HPM_P2
2023/11/29 05:02:32;;;;;;;8.82;6.38;;;1.50;99.90;;;;;;4988735;23;20231;-74
2023/11/29 05:04:59;;;;;;;8.80;7.57;;;1.40;99.90;;;;;;4942808;28;20232;-74
2023/11/29 05:07:25;;;;;;;8.77;6.88;;;1.40;99.90;;;;;;4946660;28;20232;-74
2023/11/29 05:09:53;;;;;;;8.73;6.68;;;1.40;99.90;;;;;;4942440;28;20214;-73
2023/11/29 05:12:19;;;;;;;5.68;5.28;;;1.40;99.90;;;;;;4933064;29;20232;-73
2023/11/29 05:14:46;;;;;;;7.43;5.95;;;1.40;99.90;;;;;;4927129;29;20228;-73
2023/11/29 05:17:13;;;;;;;6.30;5.70;;;1.40;99.90;;;;;;4925264;29;20595;-73
2023/11/29 05:19:41;;;;;;;6.38;5.60;;;1.40;99.90;;;;;;4934377;29;20342;-74
2023/11/29 05:22:08;;;;;;;6.95;5.53;;;1.40;99.90;;;;;;4929199;29;20230;-73
2023/11/29 05:24:35;;;;;;;4.97;4.68;;;1.40;99.90;;;;;;4925980;29;20206;-74
2023/11/29 05:27:02;;;;;;;5.85;5.43;;;1.40;99.90;;;;;;4927310;29;20249;-74
2023/11/29 05:29:29;;;;;;;6.82;6.22;;;1.40;99.90;;;;;;4927251;29;20206;-73
2023/11/29 05:31:55;;;;;;;7.30;6.55;;;1.40;99.90;;;;;;4923281;29;20221;-74
2023/11/29 05:34:22;;;;;;;6.50;5.40;;;1.40;99.90;;;;;;4926210;29;20206;-74
2023/11/29 05:36:50;;;;;;;5.70;5.30;;;1.40;99.90;;;;;;4931773;29;20222;-74
2023/11/29 05:39:19;;;;;;;8.10;6.47;;;1.50;99.90;;;;;;4934037;29;20224;-74
2023/11/29 05:41:46;;;;;;;5.57;4.75;;;1.40;99.90;;;;;;4929269;29;20313;-74
2023/11/29 05:44:13;;;;;;;5.70;5.30;;;1.50;99.90;;;;;;4928950;29;20712;-74
2023/11/29 05:46:40;;;;;;;7.55;6.90;;;1.40;99.90;;;;;;4932760;29;20233;-74
2023/11/29 05:49:08;;;;;;;10.77;5.18;;;1.50;99.90;;;;;;4932290;29;20210;-74
2023/11/29 05:51:36;;;;;;;5.40;4.95;;;1.50;99.90;;;;;;4927197;29;20221;-75
2023/11/29 05:54:04;;;;;;;5.82;5.13;;;1.50;99.90;;;;;;4929841;29;20206;-74
2023/11/29 05:56:31;;;;;;;7.68;4.43;;;1.50;99.90;;;;;;4929212;29;20562;-73
2023/11/29 05:58:57;;;;;;;5.32;4.72;;;1.50;99.90;;;;;;4930192;29;20567;-73
2023/11/29 06:01:24;;;;;;;5.90;5.47;;;1.50;99.90;;;;;;4923438;29;20646;-75
2023/11/29 06:03:51;;;;;;;7.80;7.03;;;1.50;99.90;;;;;;4927039;29;20211;-73
2023/11/29 06:06:18;;;;;;;5.68;4.97;;;1.50;99.90;;;;;;4926449;29;20209;-72
2023/11/29 06:08:44;;;;;;;7.43;5.93;;;1.50;99.90;;;;;;4924357;29;20708;-73
2023/11/29 06:11:12;;;;;;;8.27;6.03;;;1.50;99.90;;;;;;4930392;29;20554;-73
2023/11/29 06:13:40;;;;;;;9.50;7.60;;;1.50;99.90;;;;;;4927422;29;20217;-73
2023/11/29 06:16:08;;;;;;;8.18;6.78;;;1.50;99.90;;;;;;4929056;29;20265;-73
2023/11/29 06:18:34;;;;;;;8.95;6.00;;;1.50;99.90;;;;;;4931431;29;20217;-73
2023/11/29 06:21:04;;;;;;;9.68;6.95;;;1.50;99.90;;;;;;4931847;29;20237;-74
2023/11/29 06:23:31;;;;;;;7.88;6.90;;;1.50;99.90;;;;;;4928265;29;20202;-74
2023/11/29 06:25:58;;;;;;;11.55;7.18;;;1.50;99.90;;;;;;4932903;29;20218;-73
2023/11/29 06:28:27;;;;;;;57.28;30.60;;;1.50;99.90;;;;;;4931801;29;20213;-74
2023/11/29 06:30:55;;;;;;;84.75;46.20;;;1.50;99.90;;;;;;4933087;29;20233;-73
2023/11/29 06:33:22;;;;;;;44.65;25.95;;;1.50;99.90;;;;;;4923108;29;20225;-71
2023/11/29 06:35:48;;;;;;;33.28;20.05;;;1.50;99.90;;;;;;4928345;29;20213;-71
2023/11/29 06:38:15;;;;;;;16.35;11.95;;;1.60;99.90;;;;;;4933326;29;20217;-71
2023/11/29 06:40:42;;;;;;;25.60;14.43;;;1.50;99.90;;;;;;4927316;29;20309;-71
2023/11/29 06:43:09;;;;;;;24.85;16.25;;;1.50;99.90;;;;;;4926603;29;20300;-71
2023/11/29 06:45:37;;;;;;;37.92;19.33;;;1.60;99.90;;;;;;4930225;29;20344;-71
2023/11/29 06:48:04;;;;;;;18.60;10.55;;;1.50;99.90;;;;;;4926910;29;20214;-72
2023/11/29 06:50:31;;;;;;;10.90;7.60;;;1.60;99.90;;;;;;4926978;29;20312;-71
2023/11/29 06:52:59;;;;;;;8.88;7.97;;;1.50;99.90;;;;;;4932871;29;20213;-70
2023/11/29 06:55:26;;;;;;;10.32;8.48;;;1.50;99.90;;;;;;4931714;29;20210;-70
2023/11/29 06:57:52;;;;;;;12.27;9.75;;;1.50;99.90;;;;;;4931809;29;20215;-70
2023/11/29 07:00:21;;;;;;;10.55;7.22;;;1.60;99.90;;;;;;4928423;29;20275;-71
2023/11/29 07:02:49;;;;;;;6.93;5.95;;;1.60;99.90;;;;;;4923603;29;20206;-73
2023/11/29 07:05:16;;;;;;;9.88;6.55;;;1.50;99.90;;;;;;4928358;29;20217;-72
2023/11/29 07:07:43;;;;;;;10.63;7.80;;;1.60;99.90;;;;;;4931129;29;20225;-72
2023/11/29 07:10:10;;;;;;;7.72;7.03;;;1.60;99.90;;;;;;4932012;29;20202;-69
2023/11/29 07:12:37;;;;;;;9.73;8.43;;;1.60;99.90;;;;;;4928566;29;20268;-71
2023/11/29 07:15:04;;;;;;;7.20;6.45;;;1.60;99.90;;;;;;4932472;29;20212;-71
2023/11/29 07:17:31;;;;;;;10.07;7.03;;;1.60;99.90;;;;;;4930873;29;20610;-70
2023/11/29 07:20:00;;;;;;;7.80;7.10;;;1.60;99.90;;;;;;4932093;29;20560;-69
2023/11/29 07:22:27;;;;;;;8.20;7.05;;;1.60;99.90;;;;;;4928270;29;20226;-70
2023/11/29 07:24:55;;;;;;;7.32;6.32;;;1.60;99.90;;;;;;4931185;29;20455;-71
2023/11/29 07:27:22;;;;;;;13.30;7.50;;;1.60;99.90;;;;;;4934595;29;20703;-71
2023/11/29 07:29:48;;;;;;;7.22;6.45;;;1.60;99.90;;;;;;4929778;29;20217;-71
2023/11/29 07:32:15;;;;;;;7.10;6.22;;;1.60;99.90;;;;;;4927875;29;20253;-71
2023/11/29 07:34:44;;;;;;;8.32;7.50;;;1.60;99.90;;;;;;4931912;29;20209;-71
2023/11/29 07:37:12;;;;;;;9.38;6.85;;;1.60;99.90;;;;;;4930001;29;20241;-70
2023/11/29 07:39:39;;;;;;;6.95;5.78;;;1.60;99.90;;;;;;4929466;29;20210;-70
2023/11/29 07:42:07;;;;;;;7.25;6.30;;;1.60;99.90;;;;;;4927040;29;20608;-71
2023/11/29 07:44:33;;;;;;;8.57;7.68;;;1.60;99.90;;;;;;4933985;29;20206;-70
2023/11/29 07:47:00;;;;;;;7.97;6.20;;;1.60;99.90;;;;;;4931871;29;20582;-70
2023/11/29 07:49:27;;;;;;;8.07;7.30;;;1.60;99.90;;;;;;4927598;29;20208;-70
2023/11/29 07:51:53;;;;;;;7.03;6.25;;;1.60;99.90;;;;;;4931347;29;20230;-69
2023/11/29 07:54:21;;;;;;;9.93;7.47;;;1.60;99.90;;;;;;4933748;29;20206;-70
2023/11/29 07:56:48;;;;;;;8.52;6.28;;;1.60;99.90;;;;;;4922600;29;20206;-71
2023/11/29 07:59:15;;;;;;;6.78;5.95;;;1.60;99.90;;;;;;4924406;29;20214;-69
2023/11/29 08:01:42;;;;;;;8.25;7.28;;;1.60;99.90;;;;;;4928745;29;20238;-69
2023/11/29 08:04:08;;;;;;;5.30;5.00;;;1.60;99.90;;;;;;4930638;29;20227;-71
2023/11/29 08:06:35;;;;;;;7.18;5.65;;;1.60;99.90;;;;;;4929854;29;20206;-71
2023/11/29 08:09:02;;;;;;;5.28;4.78;;;1.60;99.90;;;;;;4930832;29;20210;-71
2023/11/29 08:11:30;;;;;;;6.18;5.65;;;1.60;99.90;;;;;;4931327;29;20606;-69
2023/11/29 08:14:00;;;;;;;6.55;5.50;;;1.60;99.90;;;;;;4932645;29;20205;-71
2023/11/29 08:16:28;;;;;;;13.05;6.88;;;1.60;99.90;;;;;;4930856;29;20265;-69
2023/11/29 08:18:55;;;;;;;9.25;6.00;;;1.60;99.90;;;;;;4929341;29;20587;-70
2023/11/29 08:21:22;;;;;;;7.43;5.72;;;1.60;99.90;;;;;;4933571;29;20236;-70
2023/11/29 08:23:48;;;;;;;5.50;5.00;;;1.60;99.90;;;;;;4930631;29;20214;-72
2023/11/29 08:26:15;;;;;;;8.48;6.75;;;1.60;99.90;;;;;;4926738;29;20464;-72
2023/11/29 08:28:43;;;;;;;7.90;5.80;;;1.60;99.90;;;;;;4930728;29;20210;-70
2023/11/29 08:31:10;;;;;;;6.68;6.07;;;1.60;99.90;;;;;;4925762;29;20225;-70
2023/11/29 08:33:37;;;;;;;12.10;7.47;;;1.60;99.90;;;;;;4928999;29;20213;-71
2023/11/29 08:36:04;;;;;;;7.60;5.85;;;1.70;99.90;;;;;;4923772;29;20210;-72
2023/11/29 08:38:31;;;;;;;6.25;4.78;;;1.70;99.90;;;;;;4928436;29;20206;-70
2023/11/29 08:40:57;;;;;;;6.90;6.40;;;1.70;99.90;;;;;;4925510;29;20273;-71
2023/11/29 08:43:24;;;;;;;7.22;6.40;;;1.70;99.90;;;;;;4930745;29;20556;-71
2023/11/29 08:45:52;;;;;;;6.43;5.82;;;1.80;99.90;;;;;;4924367;29;20601;-72
2023/11/29 08:48:19;;;;;;;9.40;5.53;;;1.80;99.90;;;;;;4932488;29;20210;-71
2023/11/29 08:50:45;;;;;;;9.52;6.07;;;1.90;99.90;;;;;;4928075;29;20241;-72
2023/11/29 08:53:13;;;;;;;8.35;5.60;;;1.80;99.90;;;;;;4928227;29;20206;-71
2023/11/29 08:55:42;;;;;;;9.65;6.93;;;1.80;99.90;;;;;;4927364;29;20218;-71
2023/11/29 08:58:09;;;;;;;12.68;8.80;;;1.80;99.90;;;;;;4926522;29;20213;-71
2023/11/29 09:00:36;;;;;;;13.85;9.98;;;1.80;99.90;;;;;;4922611;29;20234;-72
2023/11/29 09:03:06;;;;;;;10.48;7.90;;;1.80;99.90;;;;;;4928530;29;20354;-72
2023/11/29 09:05:32;;;;;;;8.50;6.53;;;1.80;99.90;;;;;;4926258;29;20308;-71
2023/11/29 09:07:59;;;;;;;11.07;8.32;;;1.80;99.90;;;;;;4930117;29;20851;-73
2023/11/29 09:10:26;;;;;;;9.55;7.18;;;1.80;99.90;;;;;;4928045;29;20209;-72
2023/11/29 09:12:52;;;;;;;11.88;10.75;;;1.90;99.90;;;;;;4926499;29;20211;-72
2023/11/29 09:15:19;;;;;;;18.52;11.95;;;1.90;99.90;;;;;;4924835;29;20329;-72
2023/11/29 09:17:46;;;;;;;28.30;16.60;;;1.90;99.90;;;;;;4929095;29;20677;-73
2023/11/29 09:20:14;;;;;;;18.88;10.98;;;1.90;99.90;;;;;;4929363;29;20239;-73
2023/11/29 09:22:41;;;;;;;26.42;16.50;;;2.00;99.90;;;;;;4931036;29;20325;-72
2023/11/29 09:25:08;;;;;;;24.27;14.48;;;2.00;99.90;;;;;;4927587;29;20206;-72
2023/11/29 09:27:35;;;;;;;21.55;12.32;;;2.00;99.90;;;;;;4929636;29;20227;-72
2023/11/29 09:30:02;;;;;;;26.35;12.57;;;2.00;99.90;;;;;;4932116;29;20607;-72
2023/11/29 09:32:28;;;;;;;15.30;11.50;;;2.00;99.90;;;;;;4927452;29;20221;-72
2023/11/29 09:34:55;;;;;;;21.48;13.68;;;2.00;99.90;;;;;;4927331;29;20238;-73
2023/11/29 09:37:23;;;;;;;19.50;12.95;;;2.10;99.90;;;;;;4930044;29;20210;-72
2023/11/29 09:39:50;;;;;;;16.17;10.60;;;2.10;99.90;;;;;;4921975;29;20224;-71
2023/11/29 09:42:20;;;;;;;14.40;8.55;;;2.10;99.90;;;;;;4927550;29;20229;-71
2023/11/29 09:44:47;;;;;;;20.55;13.50;;;2.10;99.90;;;;;;4929827;29;20218;-72
2023/11/29 09:47:15;;;;;;;10.95;8.13;;;2.10;99.90;;;;;;4932640;29;20306;-73
2023/11/29 09:49:41;;;;;;;10.82;7.85;;;2.10;99.90;;;;;;4924336;29;20589;-72
2023/11/29 09:52:08;;;;;;;7.30;6.57;;;2.20;99.90;;;;;;4932748;29;20221;-73
2023/11/29 09:54:36;;;;;;;12.82;10.48;;;2.20;99.90;;;;;;4921325;29;20233;-73
2023/11/29 09:57:03;;;;;;;11.02;8.77;;;2.20;99.90;;;;;;4930103;29;20593;-73
2023/11/29 09:59:29;;;;;;;13.00;9.20;;;2.20;99.90;;;;;;4928854;29;20214;-73
2023/11/29 10:01:56;;;;;;;36.10;20.98;;;2.20;99.90;;;;;;4925817;29;20237;-73
2023/11/29 10:04:25;;;;;;;29.67;18.77;;;2.20;99.90;;;;;;4932924;29;20585;-71
2023/11/29 10:06:51;;;;;;;20.83;12.32;;;2.20;99.90;;;;;;4929924;29;20214;-72
2023/11/29 10:09:18;;;;;;;29.27;16.92;;;2.20;99.90;;;;;;4923651;29;20209;-72
2023/11/29 10:11:46;;;;;;;20.58;12.52;;;2.20;99.90;;;;;;4927779;29;20238;-71
2023/11/29 10:14:13;;;;;;;19.10;11.25;;;2.20;99.90;;;;;;4931183;29;20213;-72
2023/11/29 10:16:39;;;;;;;17.65;11.43;;;2.20;99.90;;;;;;4932660;29;20265;-71
2023/11/29 10:19:10;;;;;;;33.45;19.73;;;2.20;99.90;;;;;;4928958;29;20211;-72
2023/11/29 10:21:41;;;;;;;11.93;8.55;;;2.20;99.90;;;;;;4931288;29;20660;-72
2023/11/29 10:24:08;;;;;;;10.85;6.57;;;2.20;99.90;;;;;;4935675;29;20631;-71
2023/11/29 10:26:35;;;;;;;6.97;6.20;;;2.20;99.90;;;;;;4933524;29;20222;-72
2023/11/29 10:29:03;;;;;;;6.38;5.80;;;2.10;99.90;;;;;;4931004;29;20217;-71
2023/11/29 10:31:31;;;;;;;9.95;5.68;;;2.10;99.90;;;;;;4926809;29;20302;-71
2023/11/29 10:33:58;;;;;;;8.40;7.68;;;2.10;99.90;;;;;;4926013;29;20209;-71
2023/11/29 10:36:27;;;;;;;9.05;6.68;;;2.00;99.90;;;;;;4932523;29;20202;-71
2023/11/29 10:39:03;;;;;;;7.10;4.30;;;2.00;99.90;;;;;;4925520;29;20222;-71
2023/11/29 10:41:33;;;;;;;7.78;6.22;;;2.00;99.90;;;;;;4929405;29;20253;-71
2023/11/29 10:44:01;;;;;;;8.43;7.63;;;2.00;99.90;;;;;;4932397;29;20211;-71
2023/11/29 10:46:34;;;;;;;28.50;16.27;;;2.00;99.90;;;;;;4931717;29;20220;-71
2023/11/29 10:49:06;;;;;;;17.73;11.38;;;2.10;99.90;;;;;;4935320;29;20206;-71
2023/11/29 10:51:34;;;;;;;11.52;8.25;;;2.10;99.90;;;;;;4934681;29;20225;-71
2023/11/29 10:54:02;;;;;;;16.77;10.93;;;2.10;99.90;;;;;;4928184;29;20236;-72
2023/11/29 10:56:31;;;;;;;20.10;12.85;;;2.10;99.90;;;;;;4928389;29;20206;-72
2023/11/29 10:59:11;;;;;;;11.55;7.03;;;2.10;99.90;;;;;;4929461;29;20221;-72
2023/11/29 11:01:41;;;;;;;11.98;7.15;;;2.10;99.90;;;;;;4934812;29;20261;-71
2023/11/29 11:04:10;;;;;;;11.98;7.78;;;2.10;99.90;;;;;;4938641;29;20687;-71
2023/11/29 11:06:39;;;;;;;10.50;7.68;;;2.10;99.90;;;;;;4938135;29;20281;-71
2023/11/29 11:09:29;;;;;;;11.13;7.78;;;2.10;99.90;;;;;;4943904;29;20216;-71
2023/11/29 11:11:58;;;;;;;8.10;6.47;;;2.10;99.90;;;;;;4936237;29;20237;-71
2023/11/29 11:14:29;;;;;;;9.27;8.20;;;2.20;99.90;;;;;;4936175;29;20319;-71
2023/11/29 11:17:03;;;;;;;10.05;7.55;;;2.20;99.90;;;;;;4933652;29;20238;-71
2023/11/29 11:19:37;;;;;;;10.77;8.10;;;2.20;99.90;;;;;;4927478;29;20656;-72
2023/11/29 11:22:07;;;;;;;7.75;6.75;;;2.20;99.90;;;;;;4932924;29;20241;-72
2023/11/29 11:24:56;;;;;;;13.82;7.88;;;2.20;99.90;;;;;;4937201;29;20213;-72
2023/11/29 11:27:25;;;;;;;12.50;9.82;;;2.10;99.90;;;;;;4934086;29;20206;-72
2023/11/29 11:29:52;;;;;;;9.15;8.23;;;2.20;99.90;;;;;;4935595;29;20209;-71
2023/11/29 11:35:38;;;;;;;9.05;8.20;;;2.10;99.90;;;;;;5170552;27;20523;-68
2023/11/29 11:38:07;;;;;;;6.45;5.70;;;2.10;99.90;;;;;;5149829;27;20326;-68
2023/11/29 11:40:37;;;;;;;9.80;7.18;;;2.10;99.90;;;;;;5139605;27;20246;-69
2023/11/29 11:43:06;;;;;;;7.75;6.93;;;2.10;99.90;;;;;;5129586;28;20639;-67
2023/11/29 11:45:36;;;;;;;7.80;7.13;;;2.10;99.90;;;;;;5128922;28;20199;-68
2023/11/29 11:48:04;;;;;;;9.55;7.00;;;2.20;99.90;;;;;;5127188;28;20222;-68
2023/11/29 11:50:31;;;;;;;9.10;7.53;;;2.10;99.90;;;;;;5128094;28;20227;-73
2023/11/29 11:53:02;;;;;;;12.48;10.75;;;2.20;99.90;;;;;;5123114;28;20207;-70
2023/11/29 11:55:30;;;;;;;6.75;5.85;;;2.20;99.90;;;;;;5122109;28;20211;-76
2023/11/29 11:57:59;;;;;;;9.50;7.63;;;2.30;99.90;;;;;;5125081;28;20766;-71
2023/11/29 12:00:27;;;;;;;9.30;7.70;;;2.30;99.90;;;;;;5123457;28;20276;-71
2023/11/29 12:02:55;;;;;;;9.20;6.97;;;2.20;99.90;;;;;;5128712;28;20286;-71
2023/11/29 12:05:22;;;;;;;9.52;7.40;;;2.20;99.90;;;;;;5128916;28;20227;-71
2023/11/29 12:07:50;;;;;;;16.83;11.45;;;2.10;99.90;;;;;;5129000;28;20211;-71
2023/11/29 12:10:18;;;;;;;13.30;7.68;;;2.10;99.90;;;;;;5127516;27;20678;-71
2023/11/29 12:12:46;;;;;;;10.43;7.85;;;2.10;99.90;;;;;;5128849;28;20235;-71
2023/11/29 12:15:15;;;;;;;25.27;13.07;;;2.10;99.90;;;;;;5120023;28;20581;-71
2023/11/29 12:17:43;;;;;;;14.45;10.93;;;2.10;99.90;;;;;;5128655;27;20213;-72
2023/11/29 12:20:11;;;;;;;8.63;5.82;;;2.10;99.90;;;;;;5126720;28;20224;-72
2023/11/29 12:22:41;;;;;;;6.00;5.43;;;2.10;99.90;;;;;;5126503;28;20211;-73
2023/11/29 12:25:13;;;;;;;9.20;5.55;;;2.00;99.90;;;;;;5126956;27;20211;-73
2023/11/29 12:27:44;;;;;;;8.48;6.57;;;2.10;99.90;;;;;;5124456;28;20203;-74
2023/11/29 12:30:12;;;;;;;8.82;7.03;;;2.10;99.90;;;;;;5123790;27;20258;-74
2023/11/29 12:32:40;;;;;;;20.15;11.05;;;2.20;99.90;;;;;;5123484;27;20210;-72
2023/11/29 12:35:09;;;;;;;15.07;10.25;;;2.20;99.90;;;;;;5127762;27;20230;-76
2023/11/29 12:37:37;;;;;;;10.25;8.15;;;1.10;99.90;;;;;;5126064;28;20673;-72
2023/11/29 12:40:05;;;;;;;8.65;6.88;;;2.20;99.90;;;;;;5130516;28;20292;-76
2023/11/29 12:42:33;;;;;;;25.15;14.80;;;2.30;99.90;;;;;;5128492;28;20207;-70
2023/11/29 12:45:01;;;;;;;14.82;9.57;;;2.30;99.90;;;;;;5122463;28;20212;-71
2023/11/29 12:47:31;;;;;;;21.23;13.48;;;2.30;99.90;;;;;;5111464;28;20208;-71
2023/11/29 12:49:58;;;;;;;15.57;9.10;;;2.30;99.90;;;;;;5112148;28;20310;-71
2023/11/29 12:52:25;;;;;;;31.35;19.38;;;2.30;99.90;;;;;;5106578;28;20200;-71
2023/11/29 12:54:52;;;;;;;14.32;10.13;;;2.20;99.90;;;;;;5113296;27;20228;-71
2023/11/29 12:57:19;;;;;;;8.48;7.13;;;2.20;99.90;;;;;;5113119;28;20766;-70
2023/11/29 12:59:46;;;;;;;6.82;5.38;;;2.20;99.90;;;;;;5110307;28;20298;-70
2023/11/29 13:02:14;;;;;;;13.02;7.93;;;2.10;99.90;;;;;;5108589;28;20209;-68
2023/11/29 13:04:41;;;;;;;13.75;9.32;;;2.10;99.90;;;;;;5101149;28;20200;-70
2023/11/29 13:07:08;;;;;;;8.15;7.40;;;2.00;99.90;;;;;;5113019;28;20253;-69
2023/11/29 13:09:35;;;;;;;17.88;11.95;;;2.00;99.90;;;;;;5111834;28;20601;-70
2023/11/29 13:12:02;;;;;;;87.55;38.83;;;2.00;99.90;;;;;;5113574;28;20700;-70
2023/11/29 13:14:29;;;;;;;25.10;16.63;;;2.10;99.90;;;;;;5113597;28;20255;-70
2023/11/29 13:16:56;;;;;;;28.25;15.75;;;2.10;99.90;;;;;;5113558;28;20527;-70
2023/11/29 13:19:24;;;;;;;10.90;7.28;;;2.10;99.90;;;;;;5105202;28;20240;-69
2023/11/29 13:21:51;;;;;;;9.65;8.07;;;2.10;99.90;;;;;;5113702;28;20287;-70
2023/11/29 13:24:18;;;;;;;9.57;6.47;;;2.10;99.90;;;;;;5113727;28;20290;-70
2023/11/29 13:26:45;;;;;;;9.10;7.45;;;2.10;99.90;;;;;;5114195;28;20220;-71
2023/11/29 13:29:12;;;;;;;10.55;7.85;;;2.10;99.90;;;;;;5106622;28;20291;-79
2023/11/29 13:31:39;;;;;;;8.13;6.28;;;2.10;99.90;;;;;;5115703;28;20227;-71
2023/11/29 13:34:06;;;;;;;12.27;6.55;;;2.10;99.90;;;;;;5113086;28;20259;-71
2023/11/29 13:36:35;;;;;;;9.25;6.80;;;2.10;99.90;;;;;;5113176;28;20675;-70
2023/11/29 13:39:05;;;;;;;8.73;7.40;;;2.10;99.90;;;;;;5112876;28;20235;-71
2023/11/29 13:41:32;;;;;;;6.82;6.28;;;2.00;99.90;;;;;;5113129;28;20254;-71
2023/11/29 13:43:59;;;;;;;9.32;5.40;;;2.00;99.90;;;;;;5110238;28;20708;-70
2023/11/29 13:46:27;;;;;;;11.80;8.10;;;2.00;99.90;;;;;;5105845;28;20688;-71
2023/11/29 13:48:55;;;;;;;12.15;7.38;;;2.00;99.90;;;;;;5109708;28;20204;-70
2023/11/29 13:51:22;;;;;;;10.00;6.35;;;2.00;99.90;;;;;;5102261;28;20325;-71
2023/11/29 13:53:50;;;;;;;12.15;8.52;;;2.00;99.90;;;;;;5107144;28;20227;-72
2023/11/29 13:56:17;;;;;;;8.52;7.25;;;2.00;99.90;;;;;;5111508;28;20200;-70
2023/11/29 13:58:45;;;;;;;10.50;7.95;;;1.90;99.90;;;;;;5111919;28;20352;-70
2023/11/29 14:01:12;;;;;;;10.27;7.90;;;1.90;99.90;;;;;;5106838;28;20684;-70
2023/11/29 14:03:39;;;;;;;9.48;6.75;;;1.80;99.90;;;;;;5111482;28;20621;-71
2023/11/29 14:06:07;;;;;;;9.98;6.75;;;1.80;99.90;;;;;;5108859;28;20235;-71
2023/11/29 14:08:34;;;;;;;8.57;6.18;;;1.80;99.90;;;;;;5111652;28;20843;-70
2023/11/29 14:11:02;;;;;;;7.75;4.93;;;1.80;99.90;;;;;;5110398;28;20310;-71
2023/11/29 14:13:31;;;;;;;4.60;4.22;;;1.70;99.90;;;;;;5103318;28;20253;-71
2023/11/29 14:15:58;;;;;;;8.20;7.15;;;1.70;99.90;;;;;;5110016;28;20208;-70
2023/11/29 14:18:25;;;;;;;4.55;4.30;;;1.70;99.90;;;;;;5109830;28;20671;-72
2023/11/29 14:20:52;;;;;;;4.97;3.45;;;1.70;99.90;;;;;;5109046;28;20228;-72
2023/11/29 14:23:19;;;;;;;6.53;5.95;;;1.60;99.90;;;;;;5111814;28;20680;-71
2023/11/29 14:25:48;;;;;;;6.55;6.05;;;1.60;99.90;;;;;;5104761;28;20570;-70
2023/11/29 14:28:16;;;;;;;5.88;5.30;;;1.60;99.90;;;;;;5111976;28;20286;-70
2023/11/29 14:30:43;;;;;;;6.07;5.13;;;1.60;99.90;;;;;;5112195;28;20528;-71
2023/11/29 14:33:10;;;;;;;8.18;6.32;;;1.60;99.90;;;;;;5111589;27;20294;-71
2023/11/29 14:35:37;;;;;;;6.65;5.85;;;1.50;99.90;;;;;;5111220;28;20310;-70
2023/11/29 14:38:04;;;;;;;6.20;4.32;;;1.50;99.90;;;;;;5107768;28;20204;-70
2023/11/29 14:40:30;;;;;;;7.93;6.63;;;1.50;99.90;;;;;;5111520;28;20228;-70
2023/11/29 14:42:58;;;;;;;6.47;5.88;;;1.50;99.90;;;;;;5105125;28;20287;-69
2023/11/29 14:45:26;;;;;;;13.82;6.50;;;1.50;99.90;;;;;;5107562;28;20645;-71
2023/11/29 14:47:53;;;;;;;5.50;4.20;;;1.50;99.90;;;;;;5109195;28;20276;-71
2023/11/29 14:50:21;;;;;;;7.10;6.47;;;1.40;99.90;;;;;;5108378;28;20535;-71
2023/11/29 14:52:47;;;;;;;4.72;4.40;;;1.50;99.90;;;;;;5106956;28;20291;-71
2023/11/29 14:55:14;;;;;;;9.60;5.75;;;1.40;99.90;;;;;;5108619;28;20666;-71
2023/11/29 14:57:41;;;;;;;6.75;5.40;;;1.40;99.90;;;;;;5107593;28;20247;-71
2023/11/29 15:00:10;;;;;;;8.35;7.53;;;1.50;99.90;;;;;;5107988;28;20253;-70
2023/11/29 15:02:38;;;;;;;7.95;6.05;;;1.50;99.90;;;;;;5103934;27;20236;-71
2023/11/29 15:05:06;;;;;;;4.57;4.18;;;1.40;99.90;;;;;;5114159;27;20212;-70
2023/11/29 15:07:33;;;;;;;5.97;5.22;;;1.40;99.90;;;;;;5110575;27;20493;-70
2023/11/29 15:09:59;;;;;;;5.10;4.35;;;1.40;99.90;;;;;;5104791;28;20534;-70
2023/11/29 15:12:26;;;;;;;7.60;7.00;;;1.50;99.90;;;;;;5108486;28;20310;-70
2023/11/29 15:14:53;;;;;;;9.35;5.70;;;1.50;99.90;;;;;;5110264;28;20727;-70
2023/11/29 15:17:20;;;;;;;5.05;4.20;;;1.50;99.90;;;;;;5110375;28;20231;-70
2023/11/29 15:19:48;;;;;;;9.63;8.70;;;1.50;99.90;;;;;;5110504;28;20589;-71
2023/11/29 15:22:15;;;;;;;6.82;6.10;;;1.50;99.90;;;;;;5110289;28;20310;-70
2023/11/29 15:24:42;;;;;;;7.43;5.60;;;1.40;99.90;;;;;;5107155;28;20283;-70
2023/11/29 15:27:09;;;;;;;6.72;5.82;;;1.40;99.90;;;;;;5106632;28;20236;-70
2023/11/29 15:29:36;;;;;;;4.47;4.18;;;1.40;99.90;;;;;;5110988;28;20283;-71
2023/11/29 15:32:03;;;;;;;6.25;5.57;;;1.40;99.90;;;;;;5110638;28;20277;-70
2023/11/29 15:34:30;;;;;;;5.70;5.15;;;1.40;99.90;;;;;;5110724;28;20228;-70
2023/11/29 15:36:58;;;;;;;3.78;3.55;;;1.40;99.90;;;;;;5107212;28;20222;-70
2023/11/29 15:39:25;;;;;;;4.95;4.53;;;1.40;99.90;;;;;;5109047;28;20274;-70
2023/11/29 15:41:52;;;;;;;5.15;4.47;;;1.40;99.90;;;;;;5102149;28;20262;-70
2023/11/29 15:44:18;;;;;;;10.23;7.00;;;1.40;99.90;;;;;;5093680;28;20208;-70
2023/11/29 15:46:45;;;;;;;8.32;6.63;;;1.40;99.90;;;;;;5101400;28;20243;-70
2023/11/29 15:49:12;;;;;;;2.78;2.58;;;1.40;99.90;;;;;;5109132;28;20298;-69
2023/11/29 15:51:39;;;;;;;7.22;6.50;;;1.40;99.90;;;;;;5110881;28;20771;-69
2023/11/29 15:54:07;;;;;;;6.97;5.03;;;1.30;99.90;;;;;;5111076;28;20234;-69
2023/11/29 15:56:34;;;;;;;7.03;5.55;;;1.30;99.90;;;;;;5102305;28;20691;-69
2023/11/29 15:59:01;;;;;;;7.65;6.43;;;1.30;99.90;;;;;;5107189;28;20248;-70
2023/11/29 16:01:29;;;;;;;6.75;5.10;;;1.30;99.90;;;;;;5110809;28;20379;-69
2023/11/29 16:03:58;;;;;;;2.83;2.60;;;1.30;99.90;;;;;;5101612;28;20204;-69
2023/11/29 16:06:26;;;;;;;5.15;3.97;;;1.20;99.90;;;;;;5111040;28;20639;-69
2023/11/29 16:08:53;;;;;;;6.13;4.35;;;1.20;99.90;;;;;;5111252;28;20226;-69
2023/11/29 16:11:21;;;;;;;6.10;5.60;;;1.20;99.90;;;;;;5110749;28;20306;-68
2023/11/29 16:13:48;;;;;;;5.85;5.38;;;1.10;99.90;;;;;;5110799;28;20656;-68
2023/11/29 16:16:15;;;;;;;6.50;5.97;;;1.10;99.90;;;;;;5110872;28;20484;-68
2023/11/29 16:18:42;;;;;;;4.15;3.40;;;1.10;99.90;;;;;;5110876;28;20231;-68
2023/11/29 16:21:09;;;;;;;6.20;5.60;;;1.10;99.90;;;;;;5113355;28;20306;-69
2023/11/29 16:23:36;;;;;;;4.20;3.90;;;1.00;99.90;;;;;;5114630;28;20260;-69
2023/11/29 16:26:03;;;;;;;8.43;5.28;;;1.10;99.90;;;;;;5115163;28;20204;-68
2023/11/29 16:28:33;;;;;;;2.97;2.80;;;1.10;99.90;;;;;;5114657;28;20287;-69
2023/11/29 16:31:00;;;;;;;3.50;3.22;;;1.00;99.90;;;;;;5114251;28;20263;-69
2023/11/29 16:33:27;;;;;;;3.75;3.50;;;1.00;99.90;;;;;;5114476;28;20234;-69
2023/11/29 16:35:54;;;;;;;10.38;6.00;;;1.00;99.90;;;;;;5111036;28;20311;-69
2023/11/29 16:38:23;;;;;;;6.38;5.22;;;1.00;99.90;;;;;;5111560;28;20278;-69
2023/11/29 16:40:50;;;;;;;4.00;3.70;;;1.00;99.90;;;;;;5114661;28;20239;-69
2023/11/29 16:43:17;;;;;;;3.78;3.45;;;1.00;99.90;;;;;;5105909;28;20236;-69
2023/11/29 16:45:45;;;;;;;1.67;1.58;;;1.00;99.90;;;;;;5105905;28;20207;-69
2023/11/29 16:48:12;;;;;;;3.42;3.17;;;1.00;99.90;;;;;;5112441;28;20287;-69
2023/11/29 16:50:39;;;;;;;9.25;6.47;;;1.00;99.90;;;;;;5113848;28;20295;-69
2023/11/29 16:53:06;;;;;;;5.47;5.07;;;1.00;99.90;;;;;;5114608;28;20246;-69
2023/11/29 16:55:33;;;;;;;6.32;5.45;;;1.00;99.90;;;;;;5113848;28;20310;-69
2023/11/29 16:58:00;;;;;;;5.93;4.53;;;1.00;99.90;;;;;;5112754;28;20295;-69
2023/11/29 17:00:27;;;;;;;4.30;2.75;;;1.00;99.90;;;;;;5100702;28;20308;-69
2023/11/29 17:02:55;;;;;;;7.57;4.68;;;1.00;99.90;;;;;;5100797;28;20201;-69
2023/11/29 17:05:22;;;;;;;6.35;4.60;;;0.90;99.90;;;;;;5110566;28;20231;-70
2023/11/29 17:07:49;;;;;;;8.10;5.13;;;0.90;99.90;;;;;;5114062;28;20204;-69
2023/11/29 17:10:16;;;;;;;8.05;4.95;;;0.90;99.90;;;;;;5113168;28;20266;-70
2023/11/29 17:12:43;;;;;;;9.00;6.03;;;0.90;99.90;;;;;;5113686;28;20287;-70
2023/11/29 17:15:10;;;;;;;8.95;5.45;;;0.90;99.90;;;;;;5100108;28;20689;-70
2023/11/29 17:17:38;;;;;;;5.82;5.25;;;0.90;99.90;;;;;;5093250;28;20669;-70
2023/11/29 17:20:07;;;;;;;5.65;4.38;;;0.90;99.90;;;;;;5101377;28;20221;-69
2023/11/29 17:22:34;;;;;;;6.65;6.00;;;0.90;99.90;;;;;;5103291;28;20236;-70
2023/11/29 17:25:01;;;;;;;9.98;7.40;;;0.90;99.90;;;;;;5107016;28;20638;-69
2023/11/29 17:27:29;;;;;;;4.72;4.40;;;0.80;99.90;;;;;;5094209;28;20244;-69
2023/11/29 17:29:56;;;;;;;4.70;4.30;;;0.90;99.90;;;;;;5103690;28;20254;-69
2023/11/29 17:32:22;;;;;;;10.32;4.63;;;0.80;99.90;;;;;;5109315;28;20291;-69
2023/11/29 17:34:49;;;;;;;3.08;2.80;;;0.80;99.90;;;;;;5111455;28;20295;-69
2023/11/29 17:37:18;;;;;;;5.10;4.63;;;0.70;99.90;;;;;;5099998;28;20350;-69
2023/11/29 17:39:45;;;;;;;5.95;3.20;;;0.70;99.90;;;;;;5112138;28;20228;-69
2023/11/29 17:42:12;;;;;;;6.82;4.97;;;0.70;99.90;;;;;;5112727;28;20578;-69
2023/11/29 17:44:39;;;;;;;5.93;5.43;;;0.60;99.90;;;;;;5112671;28;20232;-69
2023/11/29 17:47:06;;;;;;;7.05;5.20;;;0.60;99.90;;;;;;5112769;28;20247;-69
2023/11/29 17:49:33;;;;;;;7.63;4.55;;;0.50;99.90;;;;;;5106170;28;20729;-69
2023/11/29 17:52:00;;;;;;;11.15;5.40;;;0.50;99.90;;;;;;5112210;28;20206;-69
2023/11/29 17:54:28;;;;;;;5.32;4.60;;;0.50;99.90;;;;;;5103706;28;20295;-69
2023/11/29 17:56:55;;;;;;;5.78;3.95;;;0.40;99.90;;;;;;5112087;28;20315;-69
2023/11/29 17:59:22;;;;;;;3.80;3.10;;;0.30;99.90;;;;;;5109733;28;20246;-69